createdAt,value
2017-07-17T00:00:28.575Z,54.00
2017-07-17T00:02:56.116Z,54.10
2017-07-17T00:05:23.940Z,54.20
2017-07-17T00:07:51.472Z,54.20
2017-07-17T00:10:19.019Z,54.30
2017-07-17T00:12:46.859Z,54.30
2017-07-17T00:15:14.366Z,54.40
2017-07-17T00:17:41.928Z,54.70
2017-07-17T00:20:09.878Z,54.80
2017-07-17T00:22:37.491Z,54.80
2017-07-17T00:25:05.007Z,55.00
2017-07-17T00:27:32.944Z,55.10
2017-07-17T00:30:00.454Z,55.20
2017-07-17T00:32:27.981Z,55.30
2017-07-17T00:34:55.915Z,55.40
2017-07-17T00:37:23.425Z,55.40
2017-07-17T00:39:50.988Z,55.60
2017-07-17T00:42:18.879Z,55.70
2017-07-17T00:44:46.470Z,55.90
2017-07-17T00:47:13.992Z,56.00
2017-07-17T00:49:41.895Z,56.00
2017-07-17T00:52:09.436Z,56.10
2017-07-17T00:54:37.014Z,56.20
2017-07-17T00:57:05.077Z,56.30
2017-07-17T00:59:32.663Z,56.50
2017-07-17T01:02:00.168Z,56.70
2017-07-17T01:04:28.778Z,57.00
2017-07-17T01:06:56.300Z,57.00
2017-07-17T01:09:23.820Z,57.00
2017-07-17T01:11:51.638Z,57.00
2017-07-17T01:14:19.158Z,57.10
2017-07-17T01:16:46.684Z,57.20
2017-07-17T01:19:14.551Z,57.10
2017-07-17T01:21:42.069Z,57.00
2017-07-17T01:24:10.352Z,56.80
2017-07-17T01:26:38.261Z,56.80
2017-07-17T01:29:05.805Z,56.80
2017-07-17T01:31:33.314Z,56.80
2017-07-17T01:34:01.138Z,56.80
2017-07-17T01:36:28.646Z,56.80
2017-07-17T01:38:56.150Z,56.90
2017-07-17T01:41:24.046Z,56.90
2017-07-17T01:43:51.576Z,57.00
2017-07-17T01:46:19.086Z,57.70
2017-07-17T01:48:46.914Z,57.00
2017-07-17T01:51:14.414Z,57.10
2017-07-17T01:53:41.941Z,57.10
2017-07-17T01:56:09.743Z,57.10
2017-07-17T01:58:37.244Z,57.20
2017-07-17T02:01:04.783Z,57.20
2017-07-17T02:03:33.342Z,57.40
2017-07-17T02:06:00.858Z,57.40
2017-07-17T02:08:28.368Z,57.50
2017-07-17T02:10:56.194Z,57.60
2017-07-17T02:13:23.724Z,57.60
2017-07-17T02:15:51.223Z,57.70
2017-07-17T02:18:19.048Z,57.70
2017-07-17T02:20:46.570Z,57.80
2017-07-17T02:23:14.087Z,57.80
2017-07-17T02:25:41.871Z,57.90
2017-07-17T02:28:09.407Z,58.00
2017-07-17T02:30:36.946Z,58.10
2017-07-17T02:33:04.828Z,58.20
2017-07-17T02:35:32.347Z,58.30
2017-07-17T02:37:59.846Z,58.50
2017-07-17T02:40:27.717Z,58.60
2017-07-17T02:42:55.244Z,58.90
2017-07-17T02:45:22.750Z,59.00
2017-07-17T02:47:50.608Z,59.10
2017-07-17T02:50:18.162Z,59.20
2017-07-17T02:52:45.709Z,59.30
2017-07-17T02:55:13.597Z,59.40
2017-07-17T02:57:41.131Z,59.50
2017-07-17T03:00:09.416Z,59.70
2017-07-17T03:02:38.026Z,59.80
2017-07-17T03:05:05.531Z,59.80
2017-07-17T03:07:33.080Z,59.80
2017-07-17T03:10:00.907Z,60.00
2017-07-17T03:12:29.336Z,60.10
2017-07-17T03:14:57.654Z,60.30
2017-07-17T03:17:25.557Z,60.40
2017-07-17T03:19:53.074Z,60.30
2017-07-17T03:22:20.617Z,60.30
2017-07-17T03:24:49.250Z,60.70
2017-07-17T03:27:16.773Z,60.70
2017-07-17T03:29:45.052Z,61.00
2017-07-17T03:32:14.815Z,61.10
2017-07-17T03:34:42.317Z,61.00
2017-07-17T03:37:10.601Z,61.50
2017-07-17T03:39:38.395Z,61.50
2017-07-17T03:42:05.899Z,61.70
2017-07-17T03:44:34.203Z,62.10
2017-07-17T03:47:02.033Z,62.00
2017-07-17T03:49:29.560Z,62.10
2017-07-17T03:51:57.078Z,62.40
2017-07-17T03:54:24.904Z,62.60
2017-07-17T03:56:52.419Z,62.80
2017-07-17T03:59:19.982Z,62.90
2017-07-17T04:01:47.761Z,63.00
2017-07-17T04:04:15.274Z,63.10
2017-07-17T04:06:42.812Z,63.20
2017-07-17T04:09:10.650Z,63.20
2017-07-17T04:11:38.161Z,63.30
2017-07-17T04:14:05.686Z,63.50
2017-07-17T04:16:33.546Z,63.50
2017-07-17T04:19:01.057Z,63.50
2017-07-17T04:21:29.520Z,63.50
2017-07-17T04:23:57.342Z,64.30
2017-07-17T04:26:24.861Z,63.70
2017-07-17T04:28:53.333Z,63.80
2017-07-17T04:31:21.187Z,63.90
2017-07-17T04:33:48.692Z,64.00
2017-07-17T04:36:16.217Z,64.20
2017-07-17T04:38:44.052Z,64.20
2017-07-17T04:41:11.568Z,64.20
2017-07-17T04:43:39.871Z,64.20
2017-07-17T04:46:07.781Z,64.30
2017-07-17T04:48:38.670Z,64.30
2017-07-17T04:51:06.167Z,64.40
2017-07-17T04:53:34.026Z,64.50
2017-07-17T04:56:01.529Z,64.50
2017-07-17T04:58:29.060Z,64.50
2017-07-17T05:00:56.903Z,64.50
2017-07-17T05:03:24.410Z,64.60
2017-07-17T05:05:51.927Z,64.60
2017-07-17T05:08:19.805Z,64.60
2017-07-17T05:10:47.345Z,64.70
2017-07-17T05:13:15.749Z,64.80
2017-07-17T05:15:43.574Z,64.80
2017-07-17T05:18:11.079Z,64.90
2017-07-17T05:20:38.582Z,64.90
2017-07-17T05:23:07.152Z,65.40
2017-07-17T05:25:34.667Z,65.40
2017-07-17T05:28:02.201Z,65.60
2017-07-17T05:30:30.024Z,65.70
2017-07-17T05:32:57.566Z,65.80
2017-07-17T05:35:25.114Z,65.90
2017-07-17T05:37:52.968Z,65.90
2017-07-17T05:40:20.502Z,66.00
2017-07-17T05:42:48.040Z,66.20
2017-07-17T05:45:15.860Z,66.20
2017-07-17T05:47:43.388Z,66.40
2017-07-17T05:50:10.911Z,66.50
2017-07-17T05:52:38.771Z,66.70
2017-07-17T05:55:06.336Z,66.90
2017-07-17T05:57:33.874Z,67.00
2017-07-17T06:00:01.672Z,67.10
2017-07-17T06:02:29.213Z,67.30
2017-07-17T06:04:56.729Z,67.30
2017-07-17T06:07:24.634Z,67.40
2017-07-17T06:09:52.151Z,67.50
2017-07-17T06:12:20.440Z,67.90
2017-07-17T06:14:48.214Z,68.00
2017-07-17T06:17:15.755Z,67.90
2017-07-17T06:19:43.288Z,68.00
2017-07-17T06:22:11.092Z,68.30
2017-07-17T06:24:38.622Z,68.80
2017-07-17T06:27:06.933Z,69.70
2017-07-17T06:29:34.821Z,69.70
2017-07-17T06:32:02.337Z,70.30
2017-07-17T06:34:30.633Z,70.50
2017-07-17T06:37:00.414Z,70.50
2017-07-17T06:39:28.902Z,70.40
2017-07-17T06:41:57.381Z,70.60
2017-07-17T06:44:25.195Z,70.70
2017-07-17T06:46:52.705Z,70.80
2017-07-17T06:49:20.208Z,70.90
2017-07-17T06:51:48.042Z,71.10
2017-07-17T06:54:15.606Z,71.30
2017-07-17T06:56:43.890Z,71.70
2017-07-17T06:59:12.526Z,71.90
2017-07-17T07:01:40.199Z,71.90
2017-07-17T07:04:07.701Z,72.10
2017-07-17T07:06:35.605Z,72.30
2017-07-17T07:09:03.129Z,72.40
2017-07-17T07:11:32.499Z,72.40
2017-07-17T07:14:01.294Z,72.40
2017-07-17T07:16:28.974Z,72.20
2017-07-17T07:18:56.533Z,72.40
2017-07-17T07:21:25.121Z,72.60
2017-07-17T07:23:52.668Z,72.80
2017-07-17T07:26:20.856Z,72.90
2017-07-17T07:28:49.504Z,72.60
2017-07-17T07:31:17.088Z,72.70
2017-07-17T07:33:46.597Z,72.40
2017-07-17T07:43:20.844Z,72.30
2017-07-17T07:45:49.154Z,72.70
2017-07-17T07:57:02.296Z,71.90
2017-07-17T08:02:11.947Z,71.70
2017-07-17T08:04:41.314Z,71.70
2017-07-17T08:07:10.379Z,71.70
2017-07-17T08:09:40.131Z,71.50
2017-07-17T08:12:13.530Z,71.60
2017-07-17T08:14:41.232Z,71.40
2017-07-17T08:17:12.070Z,71.40
2017-07-17T08:19:43.405Z,70.30
2017-07-17T08:22:11.362Z,70.20
2017-07-17T08:25:08.174Z,70.30
2017-07-17T08:27:59.868Z,70.90
2017-07-17T08:30:27.376Z,70.40
2017-07-17T08:32:55.685Z,70.30
2017-07-17T08:35:23.552Z,70.40
2017-07-17T08:37:51.095Z,70.60
2017-07-17T08:40:18.625Z,70.80
2017-07-17T08:42:47.281Z,71.30
2017-07-17T08:45:14.798Z,71.30
2017-07-17T08:47:42.329Z,71.30
2017-07-17T08:50:10.958Z,70.50
2017-07-17T08:52:38.481Z,70.30
2017-07-17T08:55:06.786Z,69.30
2017-07-17T08:57:34.618Z,69.30
2017-07-17T09:00:02.135Z,68.80
2017-07-17T09:02:29.688Z,68.40
2017-07-17T09:04:57.500Z,68.20
2017-07-17T09:07:25.008Z,67.60
2017-07-17T09:09:52.523Z,67.00
2017-07-17T09:12:20.343Z,66.50
2017-07-17T09:14:47.874Z,66.10
2017-07-17T09:17:15.433Z,65.70
2017-07-17T09:19:43.326Z,65.80
2017-07-17T09:22:10.835Z,65.90
2017-07-17T09:24:38.340Z,65.70
2017-07-17T09:27:06.137Z,65.50
2017-07-17T09:29:33.686Z,65.70
2017-07-17T09:32:01.204Z,65.80
2017-07-17T09:34:29.027Z,66.10
2017-07-17T09:36:56.539Z,66.40
2017-07-17T09:39:24.067Z,66.30
2017-07-17T09:41:51.997Z,66.30
2017-07-17T09:44:19.514Z,66.30
2017-07-17T09:46:47.044Z,66.60
2017-07-17T09:49:14.859Z,67.10
2017-07-17T09:51:42.395Z,67.70
2017-07-17T09:54:10.702Z,67.30
2017-07-17T09:56:38.574Z,67.20
2017-07-17T09:59:06.140Z,67.10
2017-07-17T10:01:33.655Z,67.10
2017-07-17T10:04:02.243Z,66.90
2017-07-17T10:06:30.516Z,66.20
2017-07-17T10:08:58.811Z,65.80
2017-07-17T10:11:26.641Z,65.80
2017-07-17T10:13:54.163Z,65.90
2017-07-17T10:16:21.703Z,65.50
2017-07-17T10:18:49.603Z,65.10
2017-07-17T10:21:17.153Z,64.70
2017-07-17T10:23:44.690Z,64.30
2017-07-17T10:26:12.597Z,64.00
2017-07-17T10:28:40.113Z,63.50
2017-07-17T10:31:07.648Z,63.00
2017-07-17T10:33:36.054Z,62.70
2017-07-17T10:36:04.477Z,62.10
2017-07-17T10:38:32.013Z,61.30
2017-07-17T10:40:59.858Z,60.60
2017-07-17T10:43:27.371Z,59.70
2017-07-17T10:45:54.883Z,59.00
2017-07-17T10:48:22.677Z,58.50
2017-07-17T10:50:50.192Z,57.90
2017-07-17T10:53:18.472Z,57.10
2017-07-17T10:55:46.357Z,57.00
2017-07-17T10:58:13.854Z,57.20
2017-07-17T11:00:41.388Z,57.00
2017-07-17T11:03:09.375Z,56.70
2017-07-17T11:05:36.893Z,56.30
2017-07-17T11:08:05.184Z,55.70
2017-07-17T11:10:32.990Z,55.80
2017-07-17T11:13:00.510Z,55.60
2017-07-17T11:15:28.027Z,55.10
2017-07-17T11:17:55.829Z,54.80
2017-07-17T11:20:23.360Z,54.60
2017-07-17T11:22:50.876Z,54.50
2017-07-17T11:25:19.333Z,54.20
2017-07-17T11:27:46.836Z,54.10
2017-07-17T11:30:14.362Z,53.70
2017-07-17T11:32:42.155Z,53.70
2017-07-17T11:35:09.667Z,53.60
2017-07-17T11:37:37.190Z,53.80
2017-07-17T11:40:06.473Z,53.70
2017-07-17T11:42:34.030Z,53.30
2017-07-17T11:45:01.535Z,53.50
2017-07-17T12:00:02.663Z,51.00
2017-07-17T12:02:30.192Z,50.70
2017-07-17T12:07:25.470Z,51.20
2017-07-17T12:09:53.011Z,51.10
2017-07-17T12:12:20.880Z,50.40
2017-07-17T12:14:49.190Z,49.80
2017-07-17T12:17:16.724Z,49.60
2017-07-17T12:19:44.651Z,49.80
2017-07-17T12:22:13.190Z,49.80
2017-07-17T12:24:40.720Z,49.90
2017-07-17T12:27:08.660Z,50.00
2017-07-17T12:29:36.164Z,50.30
2017-07-17T12:32:04.544Z,50.70
2017-07-17T12:34:33.154Z,50.80
2017-07-17T12:37:00.671Z,50.80
2017-07-17T12:39:28.203Z,50.80
2017-07-17T12:41:56.054Z,50.80
2017-07-17T12:44:23.596Z,51.00
2017-07-17T12:46:51.147Z,51.30
2017-07-17T12:49:19.074Z,51.10
2017-07-17T12:51:46.607Z,51.00
2017-07-17T12:54:14.145Z,51.40
2017-07-17T12:56:42.037Z,51.80
2017-07-17T12:59:09.546Z,51.90
2017-07-17T13:01:37.914Z,50.10
2017-07-17T13:04:05.836Z,50.10
2017-07-17T13:06:33.364Z,48.20
2017-07-17T13:09:01.679Z,46.60
2017-07-17T13:11:29.491Z,46.50
2017-07-17T13:13:57.015Z,45.00
2017-07-17T13:16:24.543Z,43.20
2017-07-17T13:18:52.441Z,42.10
2017-07-17T13:21:19.958Z,40.30
2017-07-17T13:23:48.243Z,39.30
2017-07-17T13:26:16.082Z,39.20
2017-07-17T13:28:43.700Z,39.70
2017-07-17T13:31:11.210Z,40.40
2017-07-17T13:33:39.831Z,40.60
2017-07-17T13:36:07.400Z,40.60
2017-07-17T13:38:34.941Z,40.50
2017-07-17T13:41:02.768Z,40.00
2017-07-17T13:43:30.298Z,39.60
2017-07-17T13:45:57.815Z,39.10
2017-07-17T13:48:26.421Z,37.10
2017-07-17T13:50:53.937Z,37.00
2017-07-17T13:53:21.457Z,36.50
2017-07-17T13:55:49.366Z,36.70
2017-07-17T13:58:16.904Z,36.80
2017-07-17T14:00:44.462Z,37.50
2017-07-17T14:03:13.355Z,38.00
2017-07-17T14:05:40.877Z,38.50
2017-07-17T14:08:08.459Z,38.80
2017-07-17T14:10:36.328Z,39.30
2017-07-17T14:13:03.885Z,38.90
2017-07-17T14:15:31.403Z,38.60
2017-07-17T14:17:59.386Z,38.90
2017-07-17T14:20:27.666Z,37.60
2017-07-17T14:22:55.186Z,37.60
2017-07-17T14:25:23.073Z,37.30
2017-07-17T14:27:50.608Z,37.30
2017-07-17T14:30:18.125Z,37.60
2017-07-17T14:32:46.014Z,38.00
2017-07-17T14:35:13.548Z,38.40
2017-07-17T14:37:41.065Z,39.40
2017-07-17T14:40:08.888Z,39.20
2017-07-17T14:42:36.402Z,38.40
2017-07-17T14:45:03.947Z,37.60
2017-07-17T14:47:31.785Z,37.70
2017-07-17T14:49:59.383Z,38.40
2017-07-17T14:52:27.667Z,39.60
2017-07-17T14:54:55.523Z,39.60
2017-07-17T14:57:23.124Z,40.70
2017-07-17T14:59:50.667Z,41.20
2017-07-17T15:02:18.563Z,41.20
2017-07-17T15:04:46.148Z,41.90
2017-07-17T15:07:13.699Z,42.30
2017-07-17T15:09:41.556Z,42.30
2017-07-17T15:12:09.103Z,41.40
2017-07-17T15:14:36.640Z,41.00
2017-07-17T15:17:05.719Z,40.50
2017-07-17T15:19:33.295Z,40.50
2017-07-17T15:22:00.873Z,40.80
2017-07-17T15:24:28.772Z,40.10
2017-07-17T15:26:56.311Z,39.50
2017-07-17T15:29:23.815Z,38.90
2017-07-17T15:31:51.698Z,38.60
2017-07-17T15:34:19.225Z,38.30
2017-07-17T15:36:46.760Z,38.10
2017-07-17T15:39:14.629Z,38.30
2017-07-17T15:41:42.167Z,38.80
2017-07-17T15:44:09.687Z,39.20
2017-07-17T15:46:37.549Z,39.50
2017-07-17T15:49:05.064Z,39.40
2017-07-17T15:51:32.720Z,39.10
2017-07-17T15:54:00.523Z,38.60
2017-07-17T15:56:28.760Z,39.20
2017-07-17T15:58:56.290Z,38.90
2017-07-17T16:01:24.116Z,39.50
2017-07-17T16:03:51.673Z,40.20
2017-07-17T16:06:19.183Z,41.10
2017-07-17T16:08:48.052Z,41.90
2017-07-17T16:11:15.569Z,42.60
2017-07-17T16:13:43.105Z,43.30
2017-07-17T16:16:13.025Z,43.90
2017-07-17T16:18:40.565Z,44.60
2017-07-17T16:21:08.084Z,45.20
2017-07-17T16:23:35.911Z,45.90
2017-07-17T16:26:04.230Z,47.40
2017-07-17T16:28:31.759Z,47.00
2017-07-17T16:30:59.614Z,47.30
2017-07-17T16:33:27.915Z,48.50
2017-07-17T16:35:56.203Z,48.20
2017-07-17T16:38:24.098Z,48.20
2017-07-17T16:40:51.667Z,48.50
2017-07-17T16:43:20.223Z,48.80
2017-07-17T16:45:48.706Z,49.10
2017-07-17T16:48:16.282Z,49.40
2017-07-17T16:50:44.807Z,49.60
2017-07-17T16:53:12.663Z,49.70
2017-07-17T16:55:40.233Z,49.80
2017-07-17T16:58:07.778Z,49.70
2017-07-17T17:00:35.618Z,49.70
2017-07-17T17:03:03.177Z,49.10
2017-07-17T17:05:30.729Z,48.60
2017-07-17T17:07:58.584Z,48.50
2017-07-17T17:10:26.105Z,48.70
2017-07-17T17:12:53.688Z,49.10
2017-07-17T17:15:22.355Z,49.70
2017-07-17T17:17:49.875Z,49.70
2017-07-17T17:20:17.435Z,50.00
2017-07-17T17:22:45.315Z,50.10
2017-07-17T17:25:12.885Z,50.60
2017-07-17T17:27:40.449Z,51.10
2017-07-17T17:30:08.333Z,51.50
2017-07-17T17:32:35.871Z,51.90
2017-07-17T17:35:03.465Z,52.00
2017-07-17T17:37:32.139Z,52.40
2017-07-17T17:39:59.691Z,52.40
2017-07-17T17:42:27.247Z,52.60
2017-07-17T17:44:55.109Z,52.80
2017-07-17T17:47:22.625Z,53.00
2017-07-17T17:53:13.196Z,53.70
2017-07-17T17:58:49.179Z,53.80
2017-07-17T18:01:36.122Z,54.20
2017-07-17T18:04:06.376Z,54.20
2017-07-17T18:06:35.136Z,54.30
2017-07-17T18:09:02.880Z,53.80
2017-07-17T18:11:31.046Z,53.60
2017-07-17T18:14:01.976Z,53.40
2017-07-17T18:16:29.541Z,53.20
2017-07-17T18:18:57.397Z,53.20
2017-07-17T18:21:24.978Z,53.50
2017-07-17T18:23:52.514Z,53.60
2017-07-17T18:26:20.391Z,53.80
2017-07-17T18:28:47.960Z,54.00
2017-07-17T18:31:15.493Z,54.00
2017-07-17T18:33:45.280Z,54.10
2017-07-17T18:36:12.852Z,54.30
2017-07-17T18:38:40.437Z,54.50
2017-07-17T18:41:08.500Z,54.70
2017-07-17T18:43:36.053Z,54.80
2017-07-17T18:46:03.619Z,55.00
2017-07-17T18:48:31.482Z,55.30
2017-07-17T18:50:59.102Z,55.50
2017-07-17T18:53:27.574Z,55.90
2017-07-17T18:55:56.436Z,55.90
2017-07-17T18:58:23.977Z,56.10
2017-07-17T19:00:52.468Z,56.30
2017-07-17T19:03:20.301Z,56.40
2017-07-17T19:05:48.611Z,56.80
2017-07-17T19:08:16.356Z,57.00
2017-07-17T19:10:44.385Z,57.00
2017-07-17T19:13:18.066Z,57.20
2017-07-17T19:15:46.355Z,57.30
2017-07-17T19:18:13.905Z,57.70
2017-07-17T19:20:41.435Z,57.90
2017-07-17T19:23:09.344Z,58.00
2017-07-17T19:25:37.957Z,58.40
2017-07-17T19:30:54.704Z,58.90
2017-07-17T19:33:22.288Z,59.40
2017-07-17T19:35:49.988Z,59.10
2017-07-17T19:38:17.840Z,59.40
2017-07-17T19:40:45.405Z,59.80
2017-07-17T19:43:13.021Z,59.90
2017-07-17T19:45:40.914Z,61.00
2017-07-17T19:48:08.505Z,60.30
2017-07-17T19:50:36.089Z,60.70
2017-07-17T19:53:04.871Z,61.10
2017-07-17T19:55:33.220Z,61.90
2017-07-17T19:58:00.990Z,61.20
2017-07-17T20:00:28.855Z,61.70
2017-07-17T20:02:56.423Z,62.00
2017-07-17T20:05:23.961Z,62.30
2017-07-17T20:07:51.850Z,62.50
2017-07-17T20:10:19.428Z,62.60
2017-07-17T20:12:46.967Z,62.90
2017-07-17T20:15:14.850Z,63.30
2017-07-17T20:17:42.402Z,63.60
2017-07-17T20:20:09.959Z,64.00
2017-07-17T20:22:37.811Z,64.30
2017-07-17T20:25:05.340Z,64.30
2017-07-17T20:27:32.906Z,64.60
2017-07-17T20:30:00.758Z,65.00
2017-07-17T20:32:29.545Z,65.60
2017-07-17T20:34:57.093Z,65.70
2017-07-17T20:37:25.001Z,65.90
2017-07-17T20:39:52.519Z,66.00
2017-07-17T20:42:20.850Z,66.50
2017-07-17T20:44:48.879Z,66.50
2017-07-17T20:47:17.233Z,66.90
2017-07-17T20:49:44.761Z,67.10
2017-07-17T20:52:12.686Z,67.40
2017-07-17T20:54:41.015Z,67.80
2017-07-17T20:57:08.566Z,67.70
2017-07-17T20:59:36.467Z,68.10
2017-07-17T21:02:04.004Z,68.40
2017-07-17T21:04:31.550Z,68.60
2017-07-17T21:06:59.425Z,68.70
2017-07-17T21:09:26.964Z,68.90
2017-07-17T21:11:54.507Z,69.00
2017-07-17T21:14:23.091Z,69.30
2017-07-17T21:16:51.384Z,69.40
2017-07-17T21:19:18.940Z,70.20
2017-07-17T21:21:47.081Z,69.60
2017-07-17T21:24:15.399Z,69.90
2017-07-17T21:26:42.934Z,69.80
2017-07-17T21:29:10.869Z,70.00
2017-07-17T21:31:38.407Z,70.00
2017-07-17T21:34:05.985Z,70.10
2017-07-17T21:36:34.014Z,70.30
2017-07-17T21:39:01.563Z,70.40
2017-07-17T21:41:29.174Z,70.50
2017-07-17T21:43:57.062Z,70.60
2017-07-17T21:46:24.589Z,70.50
2017-07-17T21:48:52.169Z,70.60
2017-07-17T21:51:20.089Z,70.70
2017-07-17T21:53:47.661Z,70.70
2017-07-17T21:56:15.184Z,70.90
2017-07-17T21:58:43.013Z,70.90
2017-07-17T22:01:10.552Z,71.00
2017-07-17T22:03:38.061Z,71.10
2017-07-17T22:06:05.902Z,71.30
2017-07-17T22:08:33.425Z,71.30
2017-07-17T22:11:00.961Z,71.50
2017-07-17T22:13:29.602Z,72.30
2017-07-17T22:15:57.124Z,71.60
2017-07-17T22:18:24.645Z,71.90
2017-07-17T22:20:52.523Z,71.90
2017-07-17T22:23:20.064Z,72.00
2017-07-17T22:25:47.575Z,72.00
2017-07-17T22:28:15.475Z,72.00
2017-07-17T22:30:43.015Z,72.10
2017-07-17T22:33:10.544Z,72.10
2017-07-17T22:35:38.462Z,72.20
2017-07-17T22:38:05.987Z,72.20
2017-07-17T22:40:34.296Z,72.20
2017-07-17T22:43:02.117Z,72.20
2017-07-17T22:45:30.402Z,71.80
2017-07-17T22:47:58.718Z,73.00
2017-07-17T22:50:26.534Z,72.30
2017-07-17T22:52:54.070Z,72.40
2017-07-17T22:55:21.609Z,72.30
2017-07-17T22:57:49.501Z,73.20
2017-07-17T23:00:17.029Z,72.40
2017-07-17T23:02:44.561Z,72.50
2017-07-17T23:05:13.304Z,72.50
2017-07-17T23:07:40.841Z,72.50
2017-07-17T23:10:08.377Z,72.50
2017-07-17T23:12:36.203Z,72.60
2017-07-17T23:15:03.752Z,72.70
2017-07-17T23:17:31.259Z,72.80
2017-07-17T23:19:59.063Z,72.80
2017-07-17T23:22:26.607Z,72.90
2017-07-17T23:24:54.151Z,73.00
2017-07-17T23:27:22.036Z,73.20
2017-07-17T23:29:49.566Z,73.30
2017-07-17T23:32:17.858Z,73.50
2017-07-17T23:34:45.685Z,73.60
2017-07-17T23:37:13.454Z,73.60
2017-07-17T23:39:40.992Z,73.50
2017-07-17T23:42:08.863Z,73.40
2017-07-17T23:44:36.419Z,73.40
2017-07-17T23:47:03.927Z,73.40
2017-07-17T23:49:31.768Z,73.40
2017-07-17T23:51:59.308Z,73.40
2017-07-17T23:54:26.838Z,73.40
2017-07-17T23:56:54.654Z,73.60
2017-07-17T23:59:22.173Z,73.50
